createdAt,value
2017-07-25T00:01:08.155Z,32.65
2017-07-25T00:03:36.050Z,29.20
2017-07-25T00:06:03.673Z,30.77
2017-07-25T00:08:31.569Z,31.15
2017-07-25T00:10:59.110Z,31.80
2017-07-25T00:13:26.653Z,30.23
2017-07-25T00:15:54.229Z,32.25
2017-07-25T00:18:21.813Z,32.15
2017-07-25T00:20:49.441Z,32.30
2017-07-25T00:23:17.016Z,34.50
2017-07-25T00:25:44.557Z,30.73
2017-07-25T00:28:12.140Z,31.35
2017-07-25T00:30:39.682Z,30.77
2017-07-25T00:33:07.373Z,30.08
2017-07-25T00:35:34.904Z,32.50
2017-07-25T00:38:02.474Z,30.15
2017-07-25T00:40:30.133Z,31.40
2017-07-25T00:42:57.674Z,30.42
2017-07-25T00:45:25.590Z,30.70
2017-07-25T00:47:53.125Z,30.37
2017-07-25T00:50:20.657Z,33.05
2017-07-25T00:52:48.996Z,31.17
2017-07-25T00:55:16.541Z,31.83
2017-07-25T00:57:50.964Z,35.35
2017-07-25T01:00:18.545Z,37.00
2017-07-25T01:02:46.086Z,34.67
2017-07-25T01:05:13.720Z,34.17
2017-07-25T01:07:41.293Z,34.90
2017-07-25T01:10:08.833Z,37.22
2017-07-25T01:12:37.041Z,37.33
2017-07-25T01:15:04.581Z,36.58
2017-07-25T01:17:32.117Z,36.67
2017-07-25T01:19:59.685Z,37.15
2017-07-25T01:22:27.218Z,37.15
2017-07-25T01:24:54.796Z,42.63
2017-07-25T01:27:22.337Z,39.45
2017-07-25T01:29:50.835Z,40.08
2017-07-25T01:32:19.137Z,39.47
2017-07-25T01:34:46.713Z,39.85
2017-07-25T01:37:14.255Z,41.47
2017-07-25T01:39:41.985Z,41.33
2017-07-25T01:42:09.525Z,43.45
2017-07-25T01:44:37.066Z,42.83
2017-07-25T01:47:04.840Z,43.50
2017-07-25T01:49:32.418Z,44.20
2017-07-25T01:51:59.993Z,41.70
2017-07-25T01:54:28.337Z,42.65
2017-07-25T01:56:56.150Z,44.80
2017-07-25T01:59:23.730Z,40.00
2017-07-25T02:01:51.264Z,41.35
2017-07-25T02:04:18.965Z,44.15
2017-07-25T02:06:46.616Z,42.62
2017-07-25T02:09:14.152Z,45.22
2017-07-25T02:11:42.785Z,49.22
2017-07-25T02:14:10.327Z,47.20
2017-07-25T02:16:37.857Z,48.00
2017-07-25T02:19:06.197Z,50.40
2017-07-25T02:21:33.733Z,51.80
2017-07-25T02:26:34.764Z,50.38
2017-07-25T02:29:02.305Z,48.10
2017-07-25T02:31:30.640Z,43.40
2017-07-25T02:33:58.217Z,40.45
2017-07-25T02:36:25.786Z,37.30
2017-07-25T02:38:53.385Z,36.97
2017-07-25T02:41:20.933Z,30.55
2017-07-25T02:56:43.353Z,30.58
2017-07-25T02:59:11.684Z,35.30
2017-07-25T03:01:39.646Z,29.98
2017-07-25T03:04:07.192Z,34.15
2017-07-25T03:06:34.720Z,35.92
2017-07-25T03:09:03.485Z,35.17
2017-07-25T03:11:31.021Z,33.53
2017-07-25T03:13:58.552Z,36.45
2017-07-25T03:16:26.277Z,38.85
2017-07-25T03:18:53.853Z,36.83
2017-07-25T03:21:22.153Z,38.28
2017-07-25T03:24:01.633Z,41.08
2017-07-25T03:26:29.170Z,40.55
2017-07-25T03:28:56.701Z,42.13
2017-07-25T03:31:24.429Z,44.28
2017-07-25T03:33:51.970Z,43.67
2017-07-25T03:36:19.501Z,42.38
2017-07-25T03:38:47.077Z,46.83
2017-07-25T03:41:14.620Z,51.50
2017-07-25T03:43:42.196Z,45.95
2017-07-25T03:46:09.737Z,44.47
2017-07-25T03:48:37.399Z,50.03
2017-07-25T03:51:04.933Z,47.60
2017-07-25T03:53:33.276Z,44.17
2017-07-25T03:56:00.893Z,45.10
2017-07-25T03:58:28.481Z,43.53
2017-07-25T04:00:56.020Z,45.22
2017-07-25T04:03:27.170Z,40.63
2017-07-25T04:05:54.709Z,39.65
2017-07-25T04:08:22.717Z,36.40
2017-07-25T04:10:50.254Z,35.45
2017-07-25T04:13:17.795Z,35.25
2017-07-25T04:15:51.950Z,34.47
2017-07-25T04:18:19.488Z,31.70
2017-07-25T04:20:47.026Z,28.38
2017-07-25T04:23:14.601Z,29.30
2017-07-25T04:25:42.137Z,30.73
2017-07-25T04:28:09.905Z,30.25
2017-07-25T04:30:37.436Z,26.90
2017-07-25T04:33:05.192Z,28.15
2017-07-25T04:35:33.521Z,28.75
2017-07-25T04:38:01.065Z,28.38
2017-07-25T04:40:28.929Z,29.65
2017-07-25T04:42:57.228Z,28.42
2017-07-25T04:45:31.065Z,31.33
2017-07-25T04:47:58.637Z,29.60
2017-07-25T04:50:26.173Z,30.65
2017-07-25T04:52:53.748Z,29.45
2017-07-25T04:55:21.281Z,31.37
2017-07-25T04:57:48.857Z,33.20
2017-07-25T05:00:16.438Z,29.80
2017-07-25T05:02:44.141Z,28.60
2017-07-25T05:05:12.442Z,21.92
2017-07-25T05:07:40.205Z,19.85
2017-07-25T05:10:07.740Z,21.33
2017-07-25T05:12:36.041Z,19.67
2017-07-25T05:15:03.614Z,20.58
2017-07-25T05:17:31.152Z,22.00
2017-07-25T05:19:58.861Z,23.92
2017-07-25T05:22:26.440Z,25.25
2017-07-25T05:24:53.976Z,27.27
2017-07-25T05:27:21.553Z,27.45
2017-07-25T05:29:49.090Z,28.80
2017-07-25T05:34:49.590Z,33.90
2017-07-25T05:37:17.885Z,29.02
2017-07-25T05:39:45.521Z,29.08
2017-07-25T05:42:13.858Z,25.85
2017-07-25T05:44:43.034Z,27.62
2017-07-25T05:47:10.876Z,25.55
2017-07-25T05:49:38.408Z,25.33
2017-07-25T05:52:06.106Z,25.77
2017-07-25T05:54:33.641Z,25.02
2017-07-25T05:57:02.157Z,27.75
2017-07-25T05:59:29.702Z,25.92
2017-07-25T06:01:57.282Z,24.48
2017-07-25T06:04:24.832Z,25.77
2017-07-25T06:06:52.415Z,24.67
2017-07-25T06:09:19.954Z,25.52
2017-07-25T06:11:47.490Z,24.87
2017-07-25T06:14:16.137Z,25.02
2017-07-25T06:16:43.677Z,26.73
2017-07-25T06:19:11.260Z,23.45
2017-07-25T06:21:38.800Z,22.98
2017-07-25T06:24:06.373Z,22.67
2017-07-25T06:26:33.903Z,21.05
2017-07-25T06:29:01.610Z,25.12
2017-07-25T06:31:29.190Z,23.33
2017-07-25T06:33:56.733Z,24.75
2017-07-25T06:36:24.381Z,25.17
2017-07-25T06:38:51.919Z,28.05
2017-07-25T06:41:19.500Z,27.60
2017-07-25T06:43:47.043Z,31.50
2017-07-25T06:46:14.809Z,28.27
2017-07-25T06:48:42.350Z,30.27
2017-07-25T06:51:09.953Z,31.30
2017-07-25T06:53:37.541Z,32.25
2017-07-25T06:56:05.475Z,31.17
2017-07-25T06:58:33.008Z,32.22
2017-07-25T07:01:01.010Z,31.77
2017-07-25T07:03:28.544Z,30.85
2017-07-25T07:05:56.081Z,31.55
2017-07-25T07:08:23.653Z,30.10
2017-07-25T07:10:51.231Z,29.25
2017-07-25T07:13:18.768Z,28.92
2017-07-25T07:15:46.345Z,28.67
2017-07-25T07:18:13.886Z,29.77
2017-07-25T07:20:41.897Z,26.08
2017-07-25T07:23:09.442Z,24.92
2017-07-25T07:25:36.976Z,22.35
2017-07-25T07:28:04.560Z,23.35
2017-07-25T07:30:32.129Z,22.05
2017-07-25T07:32:59.680Z,19.77
2017-07-25T07:35:27.257Z,19.48
2017-07-25T07:37:54.792Z,17.90
2017-07-25T07:40:22.637Z,18.60
2017-07-25T07:42:50.177Z,19.40
2017-07-25T07:45:18.488Z,20.52
2017-07-25T07:47:46.072Z,21.60
2017-07-25T07:50:13.612Z,23.67
2017-07-25T07:52:41.198Z,22.00
2017-07-25T07:55:08.738Z,21.25
2017-07-25T07:57:37.206Z,20.02
2017-07-25T08:00:04.745Z,19.33
2017-07-25T08:02:33.374Z,20.75
2017-07-25T08:05:00.917Z,20.80
2017-07-25T08:07:28.466Z,22.42
2017-07-25T08:09:56.044Z,20.15
2017-07-25T08:12:23.636Z,18.70
2017-07-25T08:14:51.177Z,19.83
2017-07-25T08:17:18.938Z,18.45
2017-07-25T08:19:46.474Z,17.55
2017-07-25T08:22:14.218Z,16.48
2017-07-25T08:24:42.530Z,14.77
2017-07-25T08:27:10.123Z,14.95
2017-07-25T08:29:37.704Z,12.90
2017-07-25T08:32:05.251Z,12.82
2017-07-25T08:34:34.581Z,10.00
2017-07-25T08:37:02.886Z,9.85
2017-07-25T08:39:30.417Z,8.38
2017-07-25T08:41:58.764Z,7.95
2017-07-25T08:44:26.293Z,7.35
2017-07-25T08:46:53.910Z,7.32
2017-07-25T08:49:22.254Z,6.90
2017-07-25T08:51:49.799Z,6.70
2017-07-25T08:54:22.700Z,6.15
2017-07-25T08:56:50.235Z,6.65
2017-07-25T08:59:17.798Z,7.00
2017-07-25T09:01:45.377Z,7.20
2017-07-25T09:04:12.912Z,7.20
2017-07-25T09:06:40.492Z,7.43
2017-07-25T09:09:08.061Z,7.40
2017-07-25T09:11:35.593Z,7.80
2017-07-25T09:14:03.485Z,9.30
2017-07-25T09:16:31.020Z,10.07
2017-07-25T09:18:58.591Z,9.68
2017-07-25T09:21:26.140Z,11.48
2017-07-25T09:23:53.722Z,13.25
2017-07-25T09:26:21.275Z,13.95
2017-07-25T09:28:49.076Z,13.02
2017-07-25T09:31:16.653Z,13.70
2017-07-25T09:33:44.966Z,14.07
2017-07-25T09:36:12.629Z,15.38
2017-07-25T09:38:40.205Z,15.30
2017-07-25T09:41:08.239Z,16.17
2017-07-25T09:43:36.128Z,16.45
2017-07-25T09:46:03.941Z,16.15
2017-07-25T09:48:31.480Z,16.55
2017-07-25T09:50:59.202Z,15.18
2017-07-25T09:53:26.748Z,15.73
2017-07-25T09:55:55.053Z,14.45
2017-07-25T09:58:22.958Z,13.70
2017-07-25T10:00:50.497Z,14.43
2017-07-25T10:03:18.039Z,13.85
2017-07-25T10:05:47.442Z,15.45
2017-07-25T10:08:14.993Z,16.15
2017-07-25T10:10:42.528Z,16.23
2017-07-25T10:13:12.509Z,16.00
2017-07-25T10:15:40.049Z,13.90
2017-07-25T10:18:07.581Z,15.10
2017-07-25T10:20:35.996Z,13.23
2017-07-25T10:23:03.595Z,12.55
2017-07-25T10:25:31.133Z,13.05
2017-07-25T10:27:58.675Z,12.88
2017-07-25T10:30:26.253Z,13.30
2017-07-25T10:32:53.795Z,13.35
2017-07-25T10:35:21.512Z,12.85
2017-07-25T10:37:49.821Z,11.68
2017-07-25T10:40:17.412Z,10.95
2017-07-25T10:42:44.958Z,12.43
2017-07-25T10:45:12.532Z,12.50
2017-07-25T10:47:45.613Z,12.52
2017-07-25T10:50:14.590Z,12.70
2017-07-25T10:52:42.135Z,13.60
2017-07-25T10:55:09.741Z,14.38
2017-07-25T10:57:37.284Z,13.93
2017-07-25T11:00:04.828Z,13.88
2017-07-25T11:02:32.409Z,15.63
2017-07-25T11:04:59.948Z,14.10
2017-07-25T11:07:27.490Z,16.00
2017-07-25T11:09:55.214Z,16.25
2017-07-25T11:12:22.744Z,15.45
2017-07-25T11:14:50.324Z,16.00
2017-07-25T11:17:17.868Z,14.00
2017-07-25T11:19:45.505Z,15.27
2017-07-25T11:22:13.053Z,15.13
2017-07-25T11:24:42.981Z,14.18
2017-07-25T11:27:10.530Z,15.07
2017-07-25T11:29:38.069Z,12.37
2017-07-25T11:32:05.764Z,12.27
2017-07-25T11:34:33.310Z,12.40
2017-07-25T11:37:01.333Z,12.05
2017-07-25T11:39:28.886Z,11.40
2017-07-25T11:41:56.425Z,9.95
2017-07-25T11:44:24.014Z,10.30
2017-07-25T11:46:51.770Z,9.70
2017-07-25T11:49:19.310Z,8.27
2017-07-25T11:51:47.210Z,7.70
2017-07-25T11:54:14.757Z,6.82
2017-07-25T11:56:42.672Z,7.07
2017-07-25T11:59:10.981Z,6.70
2017-07-25T12:01:38.573Z,6.22
2017-07-25T12:04:06.114Z,6.95
2017-07-25T12:06:34.105Z,6.32
2017-07-25T12:09:01.650Z,6.05
2017-07-25T12:11:29.207Z,7.03
2017-07-25T12:13:56.785Z,6.07
2017-07-25T12:16:24.361Z,6.60
2017-07-25T12:18:51.902Z,6.12
2017-07-25T12:21:31.649Z,6.93
2017-07-25T12:23:59.185Z,7.10
2017-07-25T12:26:26.716Z,7.72
2017-07-25T12:28:55.065Z,7.80
2017-07-25T12:31:22.649Z,7.75
2017-07-25T12:33:50.949Z,5.62
2017-07-25T12:36:21.213Z,6.82
2017-07-25T12:38:48.751Z,5.80
2017-07-25T12:41:16.289Z,5.85
2017-07-25T12:43:43.870Z,6.68
2017-07-25T12:46:11.450Z,8.45
2017-07-25T12:48:38.990Z,8.10
2017-07-25T12:51:06.755Z,6.30
2017-07-25T12:53:34.340Z,5.18
2017-07-25T12:56:01.868Z,5.87
2017-07-25T12:58:29.529Z,6.53
2017-07-25T13:01:09.097Z,6.12
2017-07-25T13:03:37.036Z,6.80
2017-07-25T13:06:04.568Z,5.97
2017-07-25T13:08:32.874Z,6.15
2017-07-25T13:11:00.685Z,6.53
2017-07-25T13:13:28.546Z,6.62
2017-07-25T13:15:56.084Z,7.62
2017-07-25T13:18:23.625Z,7.18
2017-07-25T13:20:51.351Z,11.12
2017-07-25T13:23:19.040Z,8.50
2017-07-25T13:25:46.572Z,10.10
2017-07-25T13:28:14.109Z,10.82
2017-07-25T13:30:41.973Z,11.00
2017-07-25T13:33:09.514Z,10.45
2017-07-25T13:35:37.349Z,9.77
2017-07-25T13:38:04.897Z,9.35
2017-07-25T13:40:32.442Z,7.80
2017-07-25T13:43:00.021Z,7.60
2017-07-25T13:45:28.322Z,7.18
2017-07-25T13:47:56.536Z,9.18
2017-07-25T13:50:24.069Z,7.03
2017-07-25T13:52:51.710Z,7.87
2017-07-25T13:55:19.263Z,7.47
2017-07-25T13:57:46.855Z,7.90
2017-07-25T14:00:14.394Z,7.70
2017-07-25T14:02:41.935Z,8.80
2017-07-25T14:05:09.661Z,8.60
2017-07-25T14:07:37.204Z,9.35
2017-07-25T14:10:04.781Z,9.32
2017-07-25T14:12:32.312Z,10.13
2017-07-25T14:14:59.894Z,9.77
2017-07-25T14:17:27.433Z,10.10
2017-07-25T14:19:55.076Z,9.50
2017-07-25T14:22:22.613Z,9.00
2017-07-25T14:24:50.972Z,9.48
2017-07-25T14:27:18.512Z,10.05
2017-07-25T14:29:46.081Z,9.40
2017-07-25T14:32:13.608Z,9.02
2017-07-25T14:34:41.725Z,11.10
2017-07-25T14:37:09.257Z,9.10
2017-07-25T14:39:36.803Z,10.18
2017-07-25T14:42:04.798Z,9.90
2017-07-25T14:44:32.333Z,9.05
2017-07-25T14:46:59.874Z,10.25
2017-07-25T14:49:28.920Z,10.23
2017-07-25T14:51:56.504Z,10.40
2017-07-25T14:54:24.041Z,10.73
2017-07-25T14:56:52.417Z,10.45
2017-07-25T14:59:19.953Z,11.00
2017-07-25T15:01:47.494Z,10.40
2017-07-25T15:04:15.070Z,10.93
2017-07-25T15:06:42.647Z,11.43
2017-07-25T15:09:10.185Z,12.93
2017-07-25T15:11:37.726Z,12.80
2017-07-25T15:14:05.433Z,13.43
2017-07-25T15:16:32.985Z,13.10
2017-07-25T15:19:04.245Z,13.93
2017-07-25T15:21:32.320Z,13.20
2017-07-25T15:23:59.859Z,13.07
2017-07-25T15:26:27.392Z,13.62
2017-07-25T15:28:54.977Z,12.48
2017-07-25T15:31:22.513Z,11.77
2017-07-25T15:33:51.464Z,12.82
2017-07-25T15:36:19.054Z,12.75
2017-07-25T15:38:47.360Z,12.13
2017-07-25T15:41:14.950Z,11.35
2017-07-25T15:43:42.495Z,11.25
2017-07-25T15:46:10.036Z,11.32
2017-07-25T15:48:38.385Z,10.15
2017-07-25T15:51:06.703Z,9.63
2017-07-25T15:53:34.249Z,9.70
2017-07-25T15:56:02.263Z,9.80
2017-07-25T15:58:29.806Z,10.45
2017-07-25T16:00:57.352Z,10.65
2017-07-25T16:03:30.380Z,11.77
2017-07-25T16:05:57.934Z,12.77
2017-07-25T16:08:25.481Z,12.95
2017-07-25T16:10:53.070Z,14.25
2017-07-25T16:13:21.019Z,14.38
2017-07-25T16:15:48.565Z,15.95
2017-07-25T16:18:16.106Z,15.60
2017-07-25T16:20:44.161Z,14.43
2017-07-25T16:23:12.466Z,16.90
2017-07-25T16:25:40.033Z,14.95
2017-07-25T16:28:07.785Z,15.10
2017-07-25T16:30:35.330Z,15.32
2017-07-25T16:33:02.873Z,16.48
2017-07-25T16:35:31.354Z,16.92
2017-07-25T16:37:59.661Z,15.88
2017-07-25T16:40:27.197Z,16.42
2017-07-25T16:42:55.613Z,17.02
2017-07-25T16:45:23.198Z,16.35
2017-07-25T16:47:50.734Z,17.55
2017-07-25T16:50:18.557Z,19.17
2017-07-25T16:52:46.868Z,18.02
2017-07-25T16:55:14.406Z,20.37
2017-07-25T16:57:42.753Z,21.98
2017-07-25T17:00:10.296Z,21.80
2017-07-25T17:02:38.369Z,21.60
2017-07-25T17:05:05.911Z,19.83
2017-07-25T17:07:33.454Z,21.00
2017-07-25T17:10:01.405Z,20.88
2017-07-25T17:12:29.708Z,20.80
2017-07-25T17:14:57.770Z,16.27
2017-07-25T17:17:25.313Z,16.17
2017-07-25T17:19:53.617Z,16.37
2017-07-25T17:22:21.345Z,13.45
2017-07-25T17:24:49.653Z,13.45
2017-07-25T17:27:17.189Z,11.30
2017-07-25T17:29:45.525Z,9.43
2017-07-25T17:32:13.068Z,9.48
2017-07-25T17:34:42.177Z,8.18
2017-07-25T17:37:09.706Z,7.85
2017-07-25T17:39:37.245Z,7.15
2017-07-25T17:42:05.783Z,6.75
2017-07-25T17:44:33.669Z,6.90
2017-07-25T17:47:01.565Z,7.20
2017-07-25T17:49:29.138Z,7.85
2017-07-25T17:51:56.801Z,8.90
2017-07-25T17:54:24.327Z,8.63
2017-07-25T17:56:52.085Z,8.07
2017-07-25T17:59:19.627Z,9.43
2017-07-25T18:01:51.394Z,7.85
2017-07-25T18:04:18.929Z,6.95
2017-07-25T18:06:46.457Z,7.18
2017-07-25T18:09:14.033Z,6.90
2017-07-25T18:11:41.931Z,6.53
2017-07-25T18:14:09.475Z,7.50
2017-07-25T18:16:37.015Z,8.02
2017-07-25T18:19:04.773Z,7.07
2017-07-25T18:21:32.459Z,7.68
2017-07-25T18:23:59.989Z,7.95
2017-07-25T18:26:28.303Z,8.50
2017-07-25T18:28:55.877Z,9.00
2017-07-25T18:31:23.414Z,9.90
2017-07-25T18:33:51.002Z,10.85
2017-07-25T18:36:18.550Z,10.60
2017-07-25T18:38:46.214Z,10.85
2017-07-25T18:41:13.754Z,11.40
2017-07-25T18:43:41.294Z,12.43
2017-07-25T18:46:08.883Z,11.77
2017-07-25T18:48:36.994Z,12.00
2017-07-25T18:51:04.591Z,12.68
2017-07-25T18:53:32.133Z,11.65
2017-07-25T18:56:02.009Z,10.10
2017-07-25T18:58:29.773Z,9.95
2017-07-25T19:00:57.319Z,9.43
2017-07-25T19:03:25.984Z,10.10
2017-07-25T19:05:53.565Z,10.90
2017-07-25T19:08:21.441Z,13.20
2017-07-25T19:10:48.988Z,13.27
2017-07-25T19:13:17.277Z,13.82
2017-07-25T19:15:45.242Z,13.82
2017-07-25T19:18:12.791Z,13.13
2017-07-25T19:20:40.346Z,13.57
2017-07-25T19:23:08.061Z,14.98
2017-07-25T19:25:35.601Z,14.20
2017-07-25T19:28:03.462Z,15.52
2017-07-25T19:30:30.994Z,14.80
2017-07-25T19:32:58.535Z,14.20
2017-07-25T19:35:27.272Z,13.98
2017-07-25T19:37:54.808Z,14.48
2017-07-25T19:40:22.370Z,15.55
2017-07-25T19:42:49.953Z,13.00
2017-07-25T19:45:17.533Z,13.25
2017-07-25T19:47:45.078Z,13.65
2017-07-25T19:50:17.956Z,12.13
2017-07-25T19:52:45.498Z,12.50
2017-07-25T19:55:13.033Z,12.07
2017-07-25T19:57:40.949Z,11.77
2017-07-25T20:00:08.972Z,11.18
2017-07-25T20:02:36.517Z,11.75
2017-07-25T20:05:04.094Z,11.15
2017-07-25T20:07:31.639Z,10.32
2017-07-25T20:10:00.386Z,9.50
2017-07-25T20:12:27.916Z,9.57
2017-07-25T20:14:55.441Z,9.70
2017-07-25T20:17:23.785Z,9.40
2017-07-25T20:19:51.328Z,9.18
2017-07-25T20:22:19.011Z,8.05
2017-07-25T20:24:46.547Z,8.88
2017-07-25T20:27:14.101Z,9.68
2017-07-25T20:29:41.833Z,9.90
2017-07-25T20:32:10.128Z,10.50
2017-07-25T20:34:37.870Z,12.37
2017-07-25T20:37:06.177Z,13.43
2017-07-25T20:39:33.714Z,14.18
2017-07-25T20:42:02.052Z,15.32
2017-07-25T20:44:29.900Z,16.45
2017-07-25T20:46:57.442Z,14.87
2017-07-25T20:49:24.985Z,16.55
2017-07-25T20:51:52.685Z,16.98
2017-07-25T20:54:20.221Z,16.75
2017-07-25T20:56:48.016Z,17.70
2017-07-25T20:59:15.549Z,16.15
2017-07-25T21:01:43.305Z,16.42
2017-07-25T21:04:10.845Z,17.80
2017-07-25T21:06:39.170Z,17.08
2017-07-25T21:09:06.776Z,18.00
2017-07-25T21:11:34.321Z,18.60
2017-07-25T21:14:01.858Z,18.12
2017-07-25T21:16:29.437Z,17.48
2017-07-25T21:18:57.065Z,17.95
2017-07-25T21:21:24.609Z,18.55
2017-07-25T21:23:52.175Z,19.20
2017-07-25T21:26:19.714Z,18.80
2017-07-25T21:28:48.067Z,17.75
2017-07-25T21:31:15.610Z,17.15
2017-07-25T21:33:43.474Z,16.95
2017-07-25T21:36:11.009Z,18.02
2017-07-25T21:38:38.590Z,16.52
2017-07-25T21:41:06.135Z,14.10
2017-07-25T21:43:34.025Z,14.50
2017-07-25T21:46:01.564Z,14.63
2017-07-25T21:48:29.102Z,13.27
2017-07-25T21:50:56.798Z,11.82
2017-07-25T21:53:24.337Z,12.30
2017-07-25T21:55:51.916Z,11.68
2017-07-25T21:58:19.589Z,10.25
2017-07-25T22:00:48.684Z,10.38
2017-07-25T22:03:28.061Z,9.07
2017-07-25T22:05:57.018Z,8.15
2017-07-25T22:08:24.545Z,7.75
2017-07-25T22:10:52.081Z,8.00
2017-07-25T22:13:20.426Z,7.25
2017-07-25T22:15:47.969Z,6.85
2017-07-25T22:18:15.544Z,7.53
2017-07-25T22:20:43.077Z,7.10
2017-07-25T22:23:11.047Z,7.95
2017-07-25T22:25:38.585Z,6.80
2017-07-25T22:28:06.120Z,7.37
2017-07-25T22:30:34.461Z,6.87
2017-07-25T22:33:01.997Z,7.20
2017-07-25T22:35:29.641Z,7.37
2017-07-25T22:37:57.418Z,6.72
2017-07-25T22:40:24.953Z,7.90
2017-07-25T22:42:55.041Z,8.10
2017-07-25T22:45:23.101Z,7.90
2017-07-25T22:47:50.629Z,8.80
2017-07-25T22:50:18.365Z,8.30
2017-07-25T22:52:46.832Z,8.93
2017-07-25T22:55:14.364Z,9.73
2017-07-25T22:57:41.929Z,9.70
2017-07-25T23:00:09.777Z,9.40
2017-07-25T23:02:37.304Z,9.80
2017-07-25T23:05:04.844Z,12.18
2017-07-25T23:07:32.418Z,12.45
2017-07-25T23:10:01.052Z,15.50
2017-07-25T23:12:28.584Z,18.15
2017-07-25T23:14:56.161Z,21.42
2017-07-25T23:17:23.813Z,21.50
2017-07-25T23:19:51.389Z,23.73
2017-07-25T23:22:18.934Z,27.33
2017-07-25T23:24:46.510Z,28.40
2017-07-25T23:27:14.065Z,31.15
2017-07-25T23:29:41.949Z,29.55
2017-07-25T23:32:09.493Z,31.65
2017-07-25T23:34:37.037Z,33.30
2017-07-25T23:37:04.613Z,35.63
2017-07-25T23:39:32.152Z,36.75
2017-07-25T23:41:59.730Z,36.70
2017-07-25T23:44:27.265Z,39.00
2017-07-25T23:46:54.977Z,39.78
2017-07-25T23:49:22.514Z,38.20
2017-07-25T23:51:50.473Z,39.95
2017-07-25T23:54:18.047Z,40.72
2017-07-25T23:56:45.601Z,41.75
2017-07-25T23:59:13.429Z,41.75
